Terminal Aerodrome Forecast
Issued by NWS Mt. Holly, NJ

Home | Current Version | Previous Version | Text Only | Print | Product List | Glossary On
Versions: 1 2 3 4 5 6 7 8 9 10 11 12 13 14 15
000
FTUS41 KPHI 252323
TAFRDG
TAF
KRDG 252323Z 2600/2624 04008KT 6SM -RA BR BKN008 OVC012
      TEMPO 2600/2602 3SM -RA BR OVC008
     FM260200 04008KT 6SM -SHRA BR OVC005
     FM260400 04005KT 4SM BR VCSH OVC004
     FM260600 04005KT 2SM BR OVC005
     FM261500 01005KT 5SM BR OVC015
     FM261800 36005KT P6SM BKN030=

USA.gov is the U.S. government's official web portal to all federal, state and local government web resources and services.